Terminal Aerodrome Forecast
Issued by NWS

Home | Current Version | Previous Version | Text Only | Print | Product List | Glossary On
Versions: 1 2 3 4 5 6 7 8 9 10 11 12 13 14
000
FTUS46 KEKA 151740
TAFUKI
TAF
KUKI 151740Z 1518/1618 VRB05KT 6SM HZ SCT250
     FM152000 31007KT P6SM OVC250
     FM160400 31005KT P6SM SCT250 WS020/36040KT
     FM161200 VRB03KT 6SM BR SCT250=

USA.gov is the U.S. government's official web portal to all federal, state and local government web resources and services.